Time;durP1;ratioP1;P1;durP2;ratioP2;P2;SDS_P1;SDS_P2;PMS_P1;PMS_P2;Temp;Humidity;BMP_temperature;BMP_pressure;BME280_temperature;BME280_humidity;BME280_pressure;Samples;Min_cycle;Max_cycle;Signal;HPM_P1;HPM_P2
2022/10/28 00:00:28;;;;;;;14.30;6.40;;;;;;;15.84;100.00;101440.53;5060889;28;20035;-78
2022/10/28 00:02:54;;;;;;;17.45;6.72;;;;;;;15.68;100.00;101427.22;5059261;28;20038;-77
2022/10/28 00:05:19;;;;;;;24.60;6.30;;;;;;;15.70;100.00;101429.84;5072639;28;20049;-77
2022/10/28 00:07:45;;;;;;;19.88;6.05;;;;;;;15.70;100.00;101435.38;5072608;28;20438;-77
2022/10/28 00:10:10;;;;;;;12.60;5.97;;;;;;;15.58;100.00;101429.97;5041246;28;20076;-77
2022/10/28 00:12:37;;;;;;;21.08;6.00;;;;;;;15.60;100.00;101429.81;5092620;28;20043;-77
2022/10/28 00:15:03;;;;;;;23.60;6.55;;;;;;;15.68;100.00;101426.38;5095735;28;20566;-77
2022/10/28 00:17:28;;;;;;;18.42;6.28;;;;;;;15.59;100.00;101431.72;5097817;28;20036;-76
2022/10/28 00:19:54;;;;;;;15.68;6.45;;;;;;;15.57;100.00;101435.63;5080353;28;20138;-76
2022/10/28 00:22:19;;;;;;;22.17;6.07;;;;;;;15.51;100.00;101433.41;5081759;28;20035;-77
2022/10/28 00:24:45;;;;;;;15.48;6.90;;;;;;;15.36;100.00;101435.69;5095552;28;20049;-77
2022/10/28 00:27:10;;;;;;;17.80;5.90;;;;;;;15.24;100.00;101440.41;5097704;28;20036;-77
2022/10/28 00:29:35;;;;;;;21.77;6.28;;;;;;;15.05;100.00;101441.19;5080398;28;20501;-76
2022/10/28 00:32:01;;;;;;;13.15;6.32;;;;;;;14.96;100.00;101428.22;5065603;28;20035;-76
2022/10/28 00:34:26;;;;;;;20.25;6.95;;;;;;;14.99;100.00;101430.72;5066226;28;20119;-77
2022/10/28 00:36:52;;;;;;;17.73;7.03;;;;;;;15.00;100.00;101440.72;5097928;28;20174;-77
2022/10/28 00:39:22;;;;;;;16.52;6.97;;;;;;;14.91;100.00;101434.16;5060713;28;20040;-77
2022/10/28 00:41:54;;;;;;;18.30;7.30;;;;;;;14.97;100.00;101430.84;5075604;28;20046;-76
2022/10/28 00:44:47;;;;;;;17.70;6.63;;;;;;;14.98;100.00;101432.56;5075405;28;20364;-76
2022/10/28 00:47:24;;;;;;;18.08;7.47;;;;;;;14.94;100.00;101432.97;5097388;28;20088;-77
2022/10/28 00:49:53;;;;;;;17.63;7.20;;;;;;;14.69;100.00;101426.88;5116784;28;20114;-77
2022/10/28 00:52:23;;;;;;;21.73;7.53;;;;;;;14.73;100.00;101433.00;5117631;28;20110;-77
2022/10/28 00:54:51;;;;;;;21.33;7.70;;;;;;;14.58;100.00;101419.53;5116811;28;20492;-77
2022/10/28 00:57:24;;;;;;;14.77;7.40;;;;;;;14.50;100.00;101428.44;5115828;28;20036;-77
2022/10/28 00:59:52;;;;;;;22.40;7.97;;;;;;;14.49;100.00;101412.94;5080734;28;20123;-77
2022/10/28 01:02:18;;;;;;;20.17;7.43;;;;;;;14.41;100.00;101418.22;5077823;28;20035;-77
2022/10/28 01:04:45;;;;;;;17.20;6.95;;;;;;;14.37;100.00;101419.50;5096545;28;20024;-77
2022/10/28 01:07:11;;;;;;;21.15;7.00;;;;;;;14.27;100.00;101418.56;5076209;28;20036;-77
2022/10/28 01:09:38;;;;;;;23.02;7.05;;;;;;;14.24;100.00;101413.31;5044301;28;20028;-77
2022/10/28 01:12:26;;;;;;;11.88;6.78;;;;;;;14.37;100.00;101408.47;5077492;28;20044;-77
2022/10/28 01:15:13;;;;;;;19.60;7.00;;;;;;;14.22;100.00;101407.94;5115793;28;20096;-77
2022/10/28 01:18:01;;;;;;;12.43;6.97;;;;;;;14.22;100.00;101409.81;5079678;28;20490;-77
2022/10/28 01:21:18;;;;;;;13.48;8.05;;;;;;;14.21;100.00;101397.03;5114019;28;20031;-77
2022/10/28 01:24:05;;;;;;;12.10;6.97;;;;;;;14.32;100.00;101399.75;5075693;28;20399;-76
2022/10/28 01:26:54;;;;;;;16.90;6.38;;;;;;;14.46;100.00;101393.03;5091407;28;20393;-76
2022/10/28 01:29:40;;;;;;;18.90;6.80;;;;;;;14.53;100.00;101395.13;5116014;28;20059;-78
2022/10/28 01:32:08;;;;;;;17.45;6.07;;;;;;;14.66;100.00;101394.09;5081648;28;20050;-77
2022/10/28 01:34:55;;;;;;;13.25;5.90;;;;;;;14.70;100.00;101387.28;5115112;28;20032;-77
2022/10/28 01:37:35;;;;;;;18.50;5.82;;;;;;;14.81;100.00;101386.34;5098208;28;20193;-77
2022/10/28 01:40:32;;;;;;;14.43;5.20;;;;;;;14.85;100.00;101385.03;5098172;28;20028;-78
2022/10/28 01:43:10;;;;;;;12.63;5.55;;;;;;;14.98;100.00;101390.34;5094635;28;20036;-77
2022/10/28 01:45:47;;;;;;;13.77;5.35;;;;;;;15.07;100.00;101389.53;5078007;28;20055;-77
2022/10/28 01:48:21;;;;;;;16.17;4.82;;;;;;;14.95;100.00;101374.94;5098278;28;20028;-77
2022/10/28 01:50:58;;;;;;;15.85;5.43;;;;;;;15.07;100.00;101379.38;5067751;28;20028;-77
2022/10/28 01:53:29;;;;;;;15.45;4.85;;;;;;;15.14;100.00;101387.97;5102009;28;20039;-77
2022/10/28 01:56:01;;;;;;;23.10;5.45;;;;;;;15.09;100.00;101370.97;5097565;28;20501;-77
2022/10/28 01:58:31;;;;;;;21.48;5.72;;;;;;;15.14;100.00;101374.16;5094202;28;20031;-76
2022/10/28 02:00:59;;;;;;;25.80;5.50;;;;;;;15.15;100.00;101375.94;5110966;27;20028;-77
2022/10/28 02:03:26;;;;;;;20.60;5.07;;;;;;;15.27;100.00;101370.31;5097320;28;20498;-77
2022/10/28 02:05:55;;;;;;;15.88;4.70;;;;;;;15.15;100.00;101369.50;5097029;28;20539;-77
2022/10/28 02:08:55;;;;;;;22.63;5.90;;;;;;;15.30;100.00;101381.03;5115304;28;20062;-77
2022/10/28 02:11:20;;;;;;;19.83;5.70;;;;;;;15.35;100.00;101384.28;5078994;28;20060;-77
2022/10/28 02:14:16;;;;;;;17.65;4.93;;;;;;;15.34;100.00;101380.63;5096258;28;20372;-77
2022/10/28 02:17:31;;;;;;;16.33;4.40;;;;;;;15.43;100.00;101390.84;5096580;28;20035;-76
2022/10/28 02:20:12;;;;;;;15.13;4.47;;;;;;;15.36;100.00;101383.25;5088833;28;20040;-77
2022/10/28 02:22:37;;;;;;;16.58;5.50;;;;;;;15.39;100.00;101382.97;5096063;28;21774;-77
2022/10/28 02:25:13;;;;;;;15.88;4.30;;;;;;;15.38;100.00;101384.88;5078654;28;20059;-77
2022/10/28 02:27:52;;;;;;;19.13;4.85;;;;;;;15.38;100.00;101386.72;5113212;28;21041;-77
2022/10/28 02:30:26;;;;;;;20.05;4.88;;;;;;;15.36;100.00;101388.78;5078203;28;20056;-77
2022/10/28 02:32:58;;;;;;;19.55;4.88;;;;;;;15.34;100.00;101377.00;5115587;28;20342;-77
2022/10/28 02:36:05;;;;;;;13.10;4.85;;;;;;;15.35;100.00;101382.38;5096998;28;20059;-77
2022/10/28 02:38:38;;;;;;;13.55;5.00;;;;;;;15.27;100.00;101386.88;5098155;28;20533;-77
2022/10/28 02:41:34;;;;;;;19.95;5.05;;;;;;;15.22;100.00;101381.75;5092950;28;20023;-77
2022/10/28 02:44:07;;;;;;;16.80;4.93;;;;;;;15.19;100.00;101376.50;5077793;28;20046;-77
2022/10/28 02:46:35;;;;;;;15.75;5.05;;;;;;;15.08;100.00;101383.00;5093885;28;20035;-77
2022/10/28 02:49:08;;;;;;;18.20;5.43;;;;;;;15.18;100.00;101378.41;5111071;28;20110;-77
2022/10/28 02:51:39;;;;;;;16.17;4.68;;;;;;;15.18;100.00;101374.75;5094700;28;20015;-76
2022/10/28 02:54:17;;;;;;;21.25;5.47;;;;;;;15.25;100.00;101375.97;5088390;28;20291;-76
2022/10/28 02:56:55;;;;;;;17.20;4.70;;;;;;;15.25;100.00;101367.69;5094806;28;20031;-77
2022/10/28 02:59:24;;;;;;;15.07;4.82;;;;;;;15.15;100.00;101356.63;5109722;28;20107;-77
2022/10/28 03:01:50;;;;;;;15.60;4.75;;;;;;;15.09;100.00;101351.66;5113793;28;20164;-76
2022/10/28 03:04:15;;;;;;;23.40;5.03;;;;;;;15.11;100.00;101351.50;5096205;28;20114;-77
2022/10/28 03:06:41;;;;;;;18.05;5.13;;;;;;;15.19;100.00;101355.31;5106206;28;20047;-76
2022/10/28 03:09:06;;;;;;;18.67;5.10;;;;;;;15.02;100.00;101356.84;5090723;28;20140;-77
2022/10/28 03:11:32;;;;;;;21.58;5.13;;;;;;;14.99;100.00;101346.09;5074890;28;20043;-77
2022/10/28 03:13:57;;;;;;;14.90;4.90;;;;;;;14.91;100.00;101350.56;5093257;28;20043;-77
2022/10/28 03:16:22;;;;;;;15.85;4.43;;;;;;;15.05;100.00;101363.97;5093243;28;20498;-77
2022/10/28 03:18:48;;;;;;;10.82;4.60;;;;;;;14.87;100.00;101361.84;5092473;28;20027;-76
2022/10/28 03:21:17;;;;;;;20.77;4.82;;;;;;;14.97;100.00;101356.41;5056026;28;20067;-77
2022/10/28 03:23:42;;;;;;;22.23;4.65;;;;;;;14.92;100.00;101357.81;5082516;28;20027;-76
2022/10/28 03:26:08;;;;;;;12.52;4.90;;;;;;;14.85;100.00;101363.00;5073582;28;20040;-76
2022/10/28 03:28:33;;;;;;;14.07;4.50;;;;;;;14.86;100.00;101362.84;5084274;28;20035;-76
2022/10/28 03:30:59;;;;;;;24.25;4.75;;;;;;;14.89;100.00;101361.72;5072648;28;20102;-76
2022/10/28 03:33:24;;;;;;;13.85;4.93;;;;;;;14.97;100.00;101350.88;5079287;28;20039;-76
2022/10/28 03:35:50;;;;;;;18.95;4.30;;;;;;;14.84;100.00;101353.00;5062768;28;20471;-77
2022/10/28 03:38:15;;;;;;;16.67;4.38;;;;;;;14.84;100.00;101350.25;5103936;28;20111;-76
2022/10/28 03:40:40;;;;;;;14.68;5.07;;;;;;;14.80;100.00;101349.63;5094282;28;20028;-76
2022/10/28 03:43:06;;;;;;;16.83;5.25;;;;;;;14.77;100.00;101352.63;5112023;28;20039;-77
2022/10/28 03:45:31;;;;;;;11.30;4.00;;;;;;;14.62;100.00;101360.38;5056512;28;20498;-76
2022/10/28 03:47:57;;;;;;;16.55;4.57;;;;;;;14.64;100.00;101360.25;5110557;28;20046;-76
2022/10/28 03:50:24;;;;;;;25.08;5.32;;;;;;;14.72;100.00;101357.69;5078533;28;20032;-77
2022/10/28 03:52:52;;;;;;;25.00;6.25;;;;;;;14.69;100.00;101361.63;5078886;28;20039;-77
2022/10/28 03:55:17;;;;;;;14.82;4.68;;;;;;;14.81;100.00;101356.03;5050936;28;20071;-77
2022/10/28 03:57:43;;;;;;;19.02;4.72;;;;;;;14.78;100.00;101348.03;5091449;28;20197;-77
2022/10/28 04:00:09;;;;;;;13.80;5.30;;;;;;;14.74;100.00;101352.03;5076669;28;20418;-77
2022/10/28 04:02:34;;;;;;;16.05;5.07;;;;;;;14.81;100.00;101358.78;5097549;28;20078;-78
2022/10/28 04:04:59;;;;;;;17.65;4.68;;;;;;;14.78;100.00;101348.88;5082156;28;20045;-77
2022/10/28 04:07:25;;;;;;;15.57;4.45;;;;;;;14.84;100.00;101340.06;5065593;28;20097;-77
2022/10/28 04:09:50;;;;;;;21.27;4.82;;;;;;;14.77;100.00;101338.00;5058556;28;20023;-77
2022/10/28 04:12:17;;;;;;;23.35;4.97;;;;;;;14.79;100.00;101353.41;5077517;28;20101;-77
2022/10/28 04:14:42;;;;;;;16.00;5.82;;;;;;;14.84;100.00;101348.34;5064042;28;20541;-76
2022/10/28 04:17:08;;;;;;;10.23;5.10;;;;;;;14.84;100.00;101355.75;5095370;28;20119;-77
2022/10/28 04:19:33;;;;;;;20.33;4.93;;;;;;;14.75;100.00;101349.16;5098936;28;20071;-77
2022/10/28 04:21:59;;;;;;;17.17;4.57;;;;;;;14.71;100.00;101347.69;5097108;28;20042;-77
2022/10/28 04:24:24;;;;;;;19.88;4.57;;;;;;;14.81;100.00;101347.75;5081824;28;20032;-77
2022/10/28 04:26:50;;;;;;;13.27;4.38;;;;;;;14.85;100.00;101355.59;5081431;28;20460;-75
2022/10/28 04:29:15;;;;;;;25.05;4.88;;;;;;;14.84;100.00;101361.25;5096581;28;20032;-76
2022/10/28 04:31:41;;;;;;;17.17;4.78;;;;;;;14.90;100.00;101360.69;5059761;28;20494;-77
2022/10/28 04:34:06;;;;;;;15.32;4.45;;;;;;;14.93;100.00;101370.59;5092691;28;20042;-77
2022/10/28 04:36:32;;;;;;;17.77;4.80;;;;;;;14.91;100.00;101364.34;5096030;28;20044;-77
2022/10/28 04:38:57;;;;;;;17.73;5.38;;;;;;;14.97;100.00;101372.94;5057740;28;20041;-77
2022/10/28 04:41:22;;;;;;;13.43;4.35;;;;;;;14.98;100.00;101365.53;5108177;28;20031;-77
2022/10/28 04:43:48;;;;;;;16.60;4.82;;;;;;;14.98;100.00;101362.78;5082474;28;20040;-77
2022/10/28 04:46:13;;;;;;;16.38;5.07;;;;;;;14.98;100.00;101363.63;5077708;28;20059;-77
2022/10/28 04:48:39;;;;;;;17.20;5.00;;;;;;;14.94;100.00;101359.41;5078183;28;20075;-78
2022/10/28 04:51:04;;;;;;;20.90;4.47;;;;;;;14.87;100.00;101358.22;5069173;28;20060;-76
2022/10/28 04:53:30;;;;;;;15.40;5.40;;;;;;;14.87;100.00;101361.84;5054679;28;20039;-77
2022/10/28 04:55:57;;;;;;;21.10;4.70;;;;;;;14.82;100.00;101357.75;5074787;28;20063;-77
2022/10/28 04:58:23;;;;;;;15.25;4.68;;;;;;;14.83;100.00;101363.13;5095430;28;20047;-77
2022/10/28 05:00:48;;;;;;;17.13;4.80;;;;;;;14.94;100.00;101362.19;5093859;28;20113;-76
2022/10/28 05:03:14;;;;;;;19.63;4.28;;;;;;;14.87;100.00;101356.34;5081951;28;20036;-77
2022/10/28 05:05:39;;;;;;;14.02;5.15;;;;;;;14.93;100.00;101357.66;5079924;28;20592;-77
2022/10/28 05:08:05;;;;;;;19.00;4.97;;;;;;;14.92;100.00;101353.19;5080286;28;20134;-77
2022/10/28 05:10:31;;;;;;;19.35;5.22;;;;;;;14.83;100.00;101354.84;5115106;28;20049;-77
2022/10/28 05:12:56;;;;;;;17.10;5.25;;;;;;;14.80;100.00;101354.25;5096473;28;20035;-77
2022/10/28 05:15:22;;;;;;;15.48;5.70;;;;;;;14.76;100.00;101356.44;5114892;28;20039;-77
2022/10/28 05:17:47;;;;;;;15.60;5.13;;;;;;;14.83;100.00;101356.75;5093550;28;20044;-78
2022/10/28 05:20:16;;;;;;;19.48;4.97;;;;;;;14.87;100.00;101358.22;5096637;28;20055;-77
2022/10/28 05:22:46;;;;;;;17.50;4.80;;;;;;;14.80;100.00;101363.41;5082728;28;20032;-77
2022/10/28 05:25:12;;;;;;;18.23;4.88;;;;;;;14.87;100.00;101364.63;5081638;28;20028;-77
2022/10/28 05:27:38;;;;;;;16.33;4.63;;;;;;;14.77;100.00;101358.16;5064815;28;20047;-77
2022/10/28 05:30:04;;;;;;;17.73;5.03;;;;;;;14.86;100.00;101362.00;5066161;28;20015;-77
2022/10/28 05:32:29;;;;;;;22.42;5.45;;;;;;;14.81;100.00;101356.88;5096542;28;20040;-77
2022/10/28 05:34:54;;;;;;;16.27;6.22;;;;;;;14.81;100.00;101345.00;5078048;28;20440;-77
2022/10/28 05:37:20;;;;;;;14.57;5.50;;;;;;;14.90;100.00;101349.66;5072705;28;20418;-77
2022/10/28 05:39:45;;;;;;;23.55;5.65;;;;;;;14.95;100.00;101352.00;5114788;28;20475;-77
2022/10/28 05:42:11;;;;;;;23.25;5.45;;;;;;;14.95;100.00;101349.25;5091707;28;20051;-77
2022/10/28 05:44:36;;;;;;;19.25;6.25;;;;;;;14.96;100.00;101357.41;5097098;28;20039;-77
2022/10/28 05:47:01;;;;;;;14.63;5.35;;;;;;;14.88;100.00;101348.94;5065737;28;20089;-77
2022/10/28 05:49:30;;;;;;;25.55;5.40;;;;;;;14.94;100.00;101351.16;5101173;28;20040;-77
2022/10/28 05:51:55;;;;;;;21.85;5.53;;;;;;;14.95;100.00;101350.13;5087137;28;20044;-77
2022/10/28 05:54:21;;;;;;;16.98;5.47;;;;;;;14.92;100.00;101352.28;5076780;28;20092;-77
2022/10/28 05:56:46;;;;;;;11.45;5.22;;;;;;;14.98;100.00;101343.47;5068744;28;20118;-77
2022/10/28 05:59:12;;;;;;;20.60;5.20;;;;;;;14.95;100.00;101347.38;5088982;28;20027;-77
2022/10/28 06:01:38;;;;;;;24.25;6.00;;;;;;;15.08;100.00;101349.91;5078942;28;20036;-77
2022/10/28 06:04:03;;;;;;;12.27;4.75;;;;;;;15.06;100.00;101351.94;5076975;28;20035;-77
2022/10/28 06:06:29;;;;;;;22.67;6.30;;;;;;;15.10;100.00;101353.38;5093059;28;20059;-76
2022/10/28 06:08:55;;;;;;;18.70;5.03;;;;;;;15.08;100.00;101358.16;5077502;28;20036;-77
2022/10/28 06:11:20;;;;;;;13.57;5.82;;;;;;;15.14;100.00;101368.66;5074011;28;20048;-77
2022/10/28 06:13:46;;;;;;;15.57;5.50;;;;;;;15.08;100.00;101363.69;5077422;28;20035;-77
2022/10/28 06:16:12;;;;;;;18.15;4.75;;;;;;;15.17;100.00;101349.06;5079530;28;20036;-77
2022/10/28 06:18:37;;;;;;;16.40;5.38;;;;;;;15.15;100.00;101364.00;5059613;28;20551;-77
2022/10/28 06:21:03;;;;;;;12.25;4.45;;;;;;;15.22;100.00;101357.78;5050022;28;20032;-77
2022/10/28 06:23:28;;;;;;;19.77;5.90;;;;;;;15.15;100.00;101362.13;5081854;28;20036;-77
2022/10/28 06:25:59;;;;;;;12.88;5.88;;;;;;;15.16;100.00;101361.09;5080996;28;20043;-77
2022/10/28 06:28:25;;;;;;;15.85;4.68;;;;;;;15.17;100.00;101359.25;5074978;28;20028;-77
2022/10/28 06:30:51;;;;;;;12.25;4.85;;;;;;;15.12;100.00;101362.41;5096937;28;20103;-77
2022/10/28 06:33:16;;;;;;;19.40;5.60;;;;;;;15.08;100.00;101358.16;5110872;28;20059;-77
2022/10/28 06:35:42;;;;;;;31.33;5.35;;;;;;;15.22;100.00;101366.06;5096238;28;20039;-77
2022/10/28 06:38:08;;;;;;;17.83;5.10;;;;;;;15.19;100.00;101373.75;5094676;28;20023;-77
2022/10/28 06:40:33;;;;;;;18.75;5.18;;;;;;;15.14;100.00;101376.94;5059387;28;20043;-77
2022/10/28 06:43:07;;;;;;;26.08;5.78;;;;;;;15.15;100.00;101377.78;5092929;28;20035;-77
2022/10/28 06:45:33;;;;;;;21.98;5.32;;;;;;;15.30;100.00;101376.41;5090641;28;20050;-77
2022/10/28 06:48:04;;;;;;;18.83;5.32;;;;;;;15.32;100.00;101379.91;5093495;28;20571;-77
2022/10/28 06:50:30;;;;;;;20.48;5.63;;;;;;;15.28;100.00;101381.19;5098989;28;20036;-77
2022/10/28 06:52:56;;;;;;;17.40;5.78;;;;;;;15.29;100.00;101373.78;5110542;28;20036;-78
2022/10/28 06:55:22;;;;;;;11.48;4.47;;;;;;;15.33;100.00;101370.63;5096663;28;20032;-78
2022/10/28 06:57:48;;;;;;;15.07;4.80;;;;;;;15.50;100.00;101374.59;5078376;28;20028;-77
2022/10/28 07:00:17;;;;;;;14.82;5.25;;;;;;;15.37;100.00;101363.78;5096497;28;20027;-77
2022/10/28 07:02:43;;;;;;;17.98;5.55;;;;;;;15.44;100.00;101383.41;5079370;28;20027;-77
2022/10/28 07:05:08;;;;;;;14.07;4.97;;;;;;;15.46;100.00;101372.25;5113779;28;20436;-77
2022/10/28 07:07:36;;;;;;;15.68;4.90;;;;;;;15.52;100.00;101367.03;5080026;28;20020;-77
2022/10/28 07:10:03;;;;;;;20.60;4.90;;;;;;;15.60;100.00;101374.63;5094647;28;20028;-77
2022/10/28 07:12:29;;;;;;;17.30;5.10;;;;;;;15.62;100.00;101365.16;5056178;28;20585;-77
2022/10/28 07:14:54;;;;;;;15.05;4.22;;;;;;;15.77;100.00;101370.31;5089772;28;20041;-77
2022/10/28 07:17:19;;;;;;;24.48;4.72;;;;;;;15.94;100.00;101375.16;5080734;28;20027;-77
2022/10/28 07:19:45;;;;;;;19.40;4.95;;;;;;;15.89;100.00;101373.81;5092514;28;20140;-77
2022/10/28 07:22:10;;;;;;;19.67;5.63;;;;;;;15.91;100.00;101380.94;5075972;28;20085;-77
2022/10/28 07:24:36;;;;;;;15.82;5.65;;;;;;;15.97;100.00;101372.09;5040028;28;20484;-77
2022/10/28 07:27:01;;;;;;;23.83;6.30;;;;;;;16.02;100.00;101373.53;5072750;28;20047;-77
2022/10/28 07:29:27;;;;;;;17.50;5.97;;;;;;;16.04;100.00;101380.69;5069160;28;20031;-77
2022/10/28 07:31:58;;;;;;;22.77;4.72;;;;;;;16.11;100.00;101378.22;5056118;28;20126;-77
2022/10/28 07:34:23;;;;;;;20.80;5.85;;;;;;;16.21;100.00;101383.72;5087245;28;20067;-77
2022/10/28 07:36:53;;;;;;;21.23;5.47;;;;;;;16.17;100.00;101385.91;5076407;28;20035;-77
2022/10/28 07:39:19;;;;;;;19.17;6.10;;;;;;;16.24;100.00;101383.44;5091955;28;20672;-77
2022/10/28 07:41:46;;;;;;;19.95;5.47;;;;;;;16.43;100.00;101385.31;5094032;28;20032;-77
2022/10/28 07:44:12;;;;;;;15.73;4.82;;;;;;;16.72;100.00;101400.00;5106270;28;20043;-77
2022/10/28 07:46:37;;;;;;;23.30;5.57;;;;;;;16.89;100.00;101397.50;5094928;28;20377;-77
2022/10/28 07:49:03;;;;;;;15.85;4.80;;;;;;;16.81;100.00;101400.13;5060105;28;20032;-77
2022/10/28 07:51:29;;;;;;;15.93;5.28;;;;;;;16.86;100.00;101404.22;5074835;28;20024;-77
2022/10/28 07:53:56;;;;;;;23.80;6.25;;;;;;;17.04;100.00;101400.69;5093775;28;20058;-77
2022/10/28 07:56:22;;;;;;;15.27;4.70;;;;;;;17.03;100.00;101399.78;5076072;28;20391;-77
2022/10/28 07:58:47;;;;;;;31.17;5.63;;;;;;;17.27;100.00;101399.25;5091790;28;20034;-77
2022/10/28 08:01:16;;;;;;;20.20;6.13;;;;;;;17.36;100.00;101386.41;5077430;28;20067;-77
2022/10/28 08:03:42;;;;;;;21.95;5.25;;;;;;;17.79;100.00;101382.09;5094919;28;20504;-77
2022/10/28 08:06:09;;;;;;;20.65;5.05;;;;;;;17.58;100.00;101376.81;5097407;28;20028;-77
2022/10/28 08:08:34;;;;;;;12.75;5.05;;;;;;;17.81;100.00;101376.41;5100389;28;20395;-77
2022/10/28 08:11:09;;;;;;;14.88;5.05;;;;;;;17.85;100.00;101376.94;5101173;28;20044;-77
2022/10/28 08:13:34;;;;;;;16.45;5.07;;;;;;;17.96;100.00;101372.06;5101144;28;20031;-77
2022/10/28 08:15:59;;;;;;;11.95;4.43;;;;;;;18.30;100.00;101374.16;5120274;28;20039;-77
2022/10/28 08:18:25;;;;;;;16.05;5.05;;;;;;;18.28;100.00;101379.00;5115653;28;20024;-77
2022/10/28 08:20:50;;;;;;;17.23;4.72;;;;;;;18.45;100.00;101393.84;5065958;28;20202;-77
2022/10/28 08:23:16;;;;;;;20.55;4.65;;;;;;;18.73;100.00;101393.75;5098340;28;20035;-77
2022/10/28 08:25:50;;;;;;;19.90;4.15;;;;;;;19.03;100.00;101397.09;5080811;28;20077;-77
2022/10/28 08:28:16;;;;;;;15.25;4.40;;;;;;;18.94;100.00;101392.50;5097858;28;20039;-77
2022/10/28 08:30:42;;;;;;;21.23;4.97;;;;;;;19.06;100.00;101396.78;5080200;28;20030;-77
2022/10/28 08:33:08;;;;;;;19.95;4.65;;;;;;;19.29;100.00;101397.06;5096225;28;20031;-77
2022/10/28 08:35:34;;;;;;;20.77;5.13;;;;;;;19.37;100.00;101404.59;5080351;28;20036;-77
2022/10/28 08:38:00;;;;;;;19.23;4.93;;;;;;;19.35;100.00;101395.53;5067609;28;20047;-77
2022/10/28 08:40:51;;;;;;;22.60;4.68;;;;;;;19.53;100.00;101399.09;5099996;28;20042;-77
2022/10/28 08:43:52;;;;;;;14.60;4.28;;;;;;;19.42;100.00;101404.94;5071976;28;20529;-77
2022/10/28 08:46:31;;;;;;;20.65;4.68;;;;;;;19.19;100.00;101401.88;5083078;28;20126;-77
2022/10/28 08:48:56;;;;;;;15.13;4.25;;;;;;;19.20;100.00;101392.50;5115543;27;20039;-77
2022/10/28 08:51:27;;;;;;;19.02;4.78;;;;;;;19.39;100.00;101397.81;5116990;28;20085;-77
2022/10/28 08:54:02;;;;;;;21.08;4.30;;;;;;;19.25;100.00;101393.75;5101649;28;20034;-77
2022/10/28 08:56:32;;;;;;;17.23;4.63;;;;;;;19.34;100.00;101396.59;5100217;28;20475;-78
2022/10/28 08:59:03;;;;;;;22.15;5.00;;;;;;;19.35;100.00;101378.84;5119129;28;20023;-77
2022/10/28 09:01:41;;;;;;;21.80;5.15;;;;;;;19.30;100.00;101379.38;5094111;28;20387;-77
2022/10/28 09:04:16;;;;;;;21.45;5.00;;;;;;;19.49;100.00;101385.72;5085546;28;20039;-77
2022/10/28 09:06:41;;;;;;;22.13;4.85;;;;;;;19.57;100.00;101383.81;5101500;28;20028;-77
2022/10/28 09:09:18;;;;;;;20.85;4.72;;;;;;;19.85;100.00;101382.75;5097268;28;20046;-77
2022/10/28 09:12:02;;;;;;;23.05;4.28;;;;;;;19.60;100.00;101389.06;5096534;28;20404;-77
2022/10/28 09:14:46;;;;;;;17.45;4.60;;;;;;;19.73;100.00;101390.50;5093749;28;20496;-77
2022/10/28 09:17:17;;;;;;;19.55;4.65;;;;;;;19.51;100.00;101394.75;5093797;28;20119;-77
2022/10/28 09:19:47;;;;;;;18.45;4.90;;;;;;;19.31;100.00;101395.00;5080256;28;20036;-77
2022/10/28 09:22:56;;;;;;;18.10;4.47;;;;;;;19.70;100.00;101404.72;5097053;28;20035;-77
2022/10/28 09:25:37;;;;;;;17.90;4.68;;;;;;;19.73;100.00;101401.63;5085749;28;20036;-77
2022/10/28 09:28:23;;;;;;;19.75;4.53;;;;;;;19.78;100.00;101411.19;5096373;28;20066;-78
2022/10/28 09:31:06;;;;;;;15.80;4.40;;;;;;;19.74;100.00;101403.34;5090811;28;20036;-77
2022/10/28 09:33:35;;;;;;;14.50;3.90;;;;;;;19.86;100.00;101409.47;5074911;28;20112;-77
2022/10/28 09:36:02;;;;;;;13.85;3.75;;;;;;;20.06;100.00;101412.84;5084247;28;20391;-77
2022/10/28 09:38:39;;;;;;;17.85;4.97;;;;;;;19.86;100.00;101390.91;5078251;28;20139;-77
2022/10/28 09:41:24;;;;;;;26.45;5.20;;;;;;;20.11;100.00;101411.28;5093283;28;20472;-77
2022/10/28 09:43:53;;;;;;;20.73;4.70;;;;;;;20.12;100.00;101426.94;5093484;28;20040;-76
2022/10/28 09:46:21;;;;;;;17.10;4.20;;;;;;;20.19;100.00;101422.44;5095728;28;20039;-76
2022/10/28 09:48:49;;;;;;;14.48;4.53;;;;;;;20.23;100.00;101420.16;5093271;28;20110;-77
2022/10/28 09:51:42;;;;;;;21.63;4.93;;;;;;;20.16;100.00;101421.91;5092753;28;20097;-77
2022/10/28 09:54:09;;;;;;;23.23;4.87;;;;;;;20.38;100.00;101418.47;5084103;28;20078;-77
2022/10/28 09:56:35;;;;;;;18.98;4.55;;;;;;;20.41;100.00;101420.03;5094224;28;20028;-76
2022/10/28 09:59:04;;;;;;;22.70;4.47;;;;;;;20.51;100.00;101415.19;5091203;28;20444;-77
2022/10/28 10:01:33;;;;;;;19.42;5.05;;;;;;;20.24;100.00;101409.94;5095878;28;20429;-76
2022/10/28 10:03:58;;;;;;;28.80;5.22;;;;;;;20.17;100.00;101418.97;5091508;28;20099;-77
2022/10/28 10:06:31;;;;;;;23.48;4.57;;;;;;;20.29;100.00;101410.28;5093214;28;20144;-77
2022/10/28 10:08:56;;;;;;;18.70;4.97;;;;;;;20.59;100.00;101413.44;5094602;28;20498;-77
2022/10/28 10:11:24;;;;;;;14.45;4.38;;;;;;;20.91;100.00;101416.22;5099139;28;20040;-77
2022/10/28 10:13:52;;;;;;;19.98;4.50;;;;;;;21.01;100.00;101413.25;5098026;28;20092;-76
2022/10/28 10:16:36;;;;;;;23.98;4.72;;;;;;;20.99;100.00;101409.78;5081082;28;20532;-76
2022/10/28 10:19:05;;;;;;;16.60;4.70;;;;;;;21.48;100.00;101418.03;5067969;28;20482;-77
2022/10/28 10:21:48;;;;;;;19.23;5.03;;;;;;;21.51;100.00;101419.59;5115821;28;20051;-77
2022/10/28 10:24:20;;;;;;;28.23;4.55;;;;;;;21.74;100.00;101416.91;5097213;28;20039;-76
2022/10/28 10:26:46;;;;;;;18.25;4.28;;;;;;;21.79;100.00;101420.00;5094414;28;20032;-77
2022/10/28 10:29:12;;;;;;;24.38;4.38;;;;;;;21.56;100.00;101417.16;5096484;28;20053;-77
2022/10/28 10:31:38;;;;;;;20.10;4.75;;;;;;;21.60;100.00;101417.66;5115945;28;20387;-77
2022/10/28 10:34:04;;;;;;;21.73;4.75;;;;;;;21.81;100.00;101417.91;5080203;28;20028;-77
2022/10/28 10:36:30;;;;;;;20.95;4.32;;;;;;;21.70;100.00;101417.44;5074314;28;20090;-77
2022/10/28 10:39:01;;;;;;;20.67;4.72;;;;;;;21.87;100.00;101418.22;5078051;28;20032;-77
2022/10/28 10:41:46;;;;;;;26.15;5.32;;;;;;;21.79;100.00;101408.88;5077848;28;20031;-76
2022/10/28 10:44:20;;;;;;;19.67;3.90;;;;;;;21.83;100.00;101415.78;5097498;28;20028;-77
2022/10/28 10:47:09;;;;;;;16.50;3.83;;;;;;;21.95;100.00;101409.81;5115778;28;20395;-77
2022/10/28 10:49:35;;;;;;;20.92;3.95;;;;;;;22.20;100.00;101405.81;5114198;28;20035;-77
2022/10/28 10:52:28;;;;;;;22.08;4.28;;;;;;;22.25;100.00;101405.28;5095309;28;20050;-77
2022/10/28 10:55:02;;;;;;;21.50;4.65;;;;;;;22.28;100.00;101398.44;5092058;28;20054;-77
2022/10/28 10:57:28;;;;;;;18.38;4.47;;;;;;;22.38;100.00;101397.19;5097170;28;20038;-77
2022/10/28 10:59:55;;;;;;;23.73;4.65;;;;;;;22.57;100.00;101390.22;5115477;28;20032;-77
2022/10/28 11:02:29;;;;;;;29.77;4.40;;;;;;;22.52;100.00;101384.31;5097794;28;20042;-77
2022/10/28 11:05:00;;;;;;;23.40;3.95;;;;;;;22.65;100.00;101375.31;5114702;28;20035;-77
2022/10/28 11:07:28;;;;;;;24.67;4.57;;;;;;;22.60;100.00;101372.22;5112486;28;20156;-77
2022/10/28 11:09:54;;;;;;;17.40;4.10;;;;;;;22.71;100.00;101377.38;5096841;28;20023;-76
2022/10/28 11:12:34;;;;;;;22.05;4.10;;;;;;;22.60;100.00;101385.34;5114904;28;20055;-77
2022/10/28 11:15:21;;;;;;;20.45;3.78;;;;;;;22.65;100.00;101386.50;5079664;28;20112;-77
2022/10/28 11:17:57;;;;;;;26.48;4.57;;;;;;;22.60;100.00;101386.19;5080357;28;20399;-77
2022/10/28 11:20:50;;;;;;;17.77;4.55;;;;;;;22.62;100.00;101386.88;5094517;28;20051;-77
2022/10/28 11:23:53;;;;;;;18.73;4.00;;;;;;;22.66;100.00;101378.97;5110679;28;20054;-77